createdAt,value
2023-04-19T00:08:55.301Z,11.00
2023-04-19T00:19:00.570Z,10.90
2023-04-19T00:29:04.314Z,10.80
2023-04-19T00:39:09.292Z,10.80
2023-04-19T00:49:12.978Z,10.70
2023-04-19T00:59:20.415Z,10.50
2023-04-19T01:09:24.302Z,10.50
2023-04-19T01:19:29.580Z,10.40
2023-04-19T01:29:34.682Z,10.40
2023-04-19T01:39:38.384Z,10.40
2023-04-19T01:49:43.460Z,10.50
2023-04-19T01:59:47.233Z,10.50
2023-04-19T02:09:52.485Z,10.50
2023-04-19T02:19:56.222Z,10.50
2023-04-19T02:30:01.211Z,10.40
2023-04-19T02:40:06.185Z,10.20
2023-04-19T02:50:11.891Z,10.20
2023-04-19T03:00:17.108Z,10.10
2023-04-19T03:10:22.504Z,10.00
2023-04-19T03:20:26.712Z,9.90
2023-04-19T03:30:31.850Z,9.90
2023-04-19T03:40:37.681Z,9.90
2023-04-19T03:50:42.704Z,10.20
2023-04-19T04:00:46.641Z,10.20
2023-04-19T04:10:55.372Z,10.20
2023-04-19T04:20:58.991Z,10.10
2023-04-19T04:31:04.064Z,10.10
2023-04-19T04:41:08.850Z,10.20
2023-04-19T04:51:13.865Z,10.20
2023-04-19T05:01:19.434Z,11.90
2023-04-19T05:11:24.509Z,10.20
2023-04-19T05:21:28.210Z,10.30
2023-04-19T05:31:33.524Z,10.30
2023-04-19T05:41:37.257Z,10.40
2023-04-19T05:51:42.245Z,10.40
2023-04-19T06:01:46.258Z,10.40
2023-04-19T06:11:52.127Z,10.50
2023-04-19T06:21:55.909Z,10.70
2023-04-19T06:32:00.941Z,10.70
2023-04-19T06:42:05.573Z,10.70
2023-04-19T06:52:10.590Z,10.70
2023-04-19T07:02:14.510Z,10.80
2023-04-19T07:12:20.559Z,10.80
2023-04-19T07:22:24.315Z,10.90
2023-04-19T07:32:29.495Z,10.90
2023-04-19T07:42:33.183Z,11.30
2023-04-19T07:52:38.170Z,11.40
2023-04-19T08:02:44.931Z,11.80
2023-04-19T08:23:10.503Z,11.40
2023-04-19T08:33:23.475Z,11.70
2023-04-19T08:43:30.543Z,12.00
2023-04-19T08:53:40.323Z,12.30
2023-04-19T09:04:00.245Z,12.70
2023-04-19T09:14:13.284Z,12.90
2023-04-19T09:24:17.079Z,13.30
2023-04-19T09:34:24.258Z,13.60
2023-04-19T09:54:36.537Z,13.60
2023-04-19T10:05:02.583Z,13.40
2023-04-19T10:15:12.725Z,13.00
2023-04-19T10:25:21.506Z,13.10
2023-04-19T10:35:30.128Z,13.60
2023-04-19T10:45:34.617Z,13.50
2023-04-19T10:55:51.929Z,13.90
2023-04-19T11:06:17.611Z,13.80
2023-04-19T11:16:31.183Z,13.80
2023-04-19T11:26:44.635Z,13.90
2023-04-19T11:36:52.083Z,14.10
2023-04-19T11:47:00.567Z,14.10
2023-04-19T11:57:07.268Z,14.30
2023-04-19T12:07:11.955Z,14.70
2023-04-19T12:17:17.032Z,14.70
2023-04-19T12:27:25.572Z,14.70
2023-04-19T12:37:30.606Z,14.70
2023-04-19T12:47:34.463Z,14.90
2023-04-19T12:57:39.548Z,14.80
2023-04-19T13:07:43.344Z,14.90
2023-04-19T13:17:48.482Z,14.80
2023-04-19T13:27:52.704Z,15.10
2023-04-19T13:37:57.882Z,14.80
2023-04-19T13:48:01.685Z,14.80
2023-04-19T13:58:07.028Z,15.10
2023-04-19T14:08:11.097Z,15.10
2023-04-19T14:18:16.300Z,15.20
2023-04-19T14:28:20.554Z,15.30
2023-04-19T14:38:25.981Z,15.50
2023-04-19T14:48:29.885Z,15.30
2023-04-19T14:58:35.061Z,15.10
2023-04-19T15:08:38.733Z,15.00
2023-04-19T15:18:44.047Z,15.20
2023-04-19T15:28:47.771Z,14.80
2023-04-19T15:38:52.898Z,15.00
2023-04-19T15:48:56.647Z,14.90
2023-04-19T15:59:02.037Z,14.40
2023-04-19T16:09:06.484Z,14.30
2023-04-19T16:19:11.661Z,14.00
2023-04-19T16:29:15.796Z,14.40
2023-04-19T16:39:21.229Z,14.10
2023-04-19T16:49:25.502Z,13.80
2023-04-19T16:59:30.819Z,13.40
2023-04-19T17:09:34.905Z,13.20
2023-04-19T17:19:39.976Z,12.90
2023-04-19T17:29:43.718Z,12.80
2023-04-19T17:39:48.775Z,12.50
2023-04-19T17:49:52.556Z,12.30
2023-04-19T17:59:57.572Z,12.10
2023-04-19T18:10:01.334Z,12.00
2023-04-19T18:20:08.626Z,11.70
2023-04-19T18:30:13.285Z,11.40
2023-04-19T18:40:19.043Z,11.00
2023-04-19T18:50:22.776Z,10.80
2023-04-19T19:00:28.087Z,10.60
2023-04-19T19:11:06.238Z,10.40
2023-04-19T19:21:01.517Z,10.40
2023-04-19T19:31:05.535Z,10.20
2023-04-19T19:41:49.558Z,9.90
2023-04-19T20:01:42.670Z,9.80
2023-04-19T20:11:46.550Z,9.70
2023-04-19T20:21:51.639Z,9.80
2023-04-19T20:31:55.430Z,9.60
2023-04-19T20:42:01.428Z,9.40
2023-04-19T20:52:06.454Z,9.30
2023-04-19T21:02:12.126Z,9.20
2023-04-19T21:12:16.251Z,8.70
2023-04-19T21:22:21.418Z,8.20
2023-04-19T21:32:26.513Z,7.90
2023-04-19T21:42:31.533Z,7.40
2023-04-19T21:52:35.471Z,7.10
2023-04-19T22:02:41.224Z,7.10
2023-04-19T22:12:57.287Z,7.10
2023-04-19T22:23:02.792Z,7.10
2023-04-19T22:33:06.561Z,6.80
2023-04-19T22:43:11.661Z,6.80
2023-04-19T22:53:15.429Z,6.70
2023-04-19T23:03:20.854Z,6.70
2023-04-19T23:13:24.721Z,6.60
2023-04-19T23:23:29.754Z,6.50
2023-04-19T23:33:34.322Z,6.40
2023-04-19T23:43:39.580Z,6.50
2023-04-19T23:53:43.197Z,6.50
